Time;durP1;ratioP1;P1;durP2;ratioP2;P2;SDS_P1;SDS_P2;PMS_P1;PMS_P2;Temp;Humidity;BMP_temperature;BMP_pressure;BME280_temperature;BME280_humidity;BME280_pressure;Samples;Min_cycle;Max_cycle;Signal;HPM_P1;HPM_P2
2022/12/21 00:02:04;;;;;;;4.47;1.80;;;14.70;74.10;;;;;;2369292;53;20942;-76
2022/12/21 00:04:30;;;;;;;3.85;1.62;;;14.70;74.20;;;;;;2369416;53;20952;-76
2022/12/21 00:06:57;;;;;;;11.52;1.95;;;14.70;74.20;;;;;;2372011;52;21311;-76
2022/12/21 00:09:23;;;;;;;4.68;1.50;;;14.60;74.20;;;;;;2446368;52;20936;-76
2022/12/21 00:11:50;;;;;;;3.25;1.40;;;14.70;74.30;;;;;;2483879;52;20982;-77
2022/12/21 00:14:16;;;;;;;3.95;1.55;;;14.60;74.20;;;;;;2369283;53;20909;-76
2022/12/21 00:16:42;;;;;;;2.62;1.30;;;14.70;74.30;;;;;;2528857;52;20978;-76
2022/12/21 00:19:13;;;;;;;3.37;1.27;;;14.60;74.30;;;;;;2368507;53;21447;-75
2022/12/21 00:21:39;;;;;;;2.75;1.20;;;14.60;74.20;;;;;;2528783;52;20986;-76
2022/12/21 00:24:06;;;;;;;4.40;1.20;;;14.60;74.30;;;;;;2398087;52;20950;-77
2022/12/21 00:26:34;;;;;;;2.12;0.88;;;14.60;74.30;;;;;;2622117;52;21402;-77
2022/12/21 00:29:00;;;;;;;3.53;1.40;;;14.60;74.40;;;;;;2368905;53;21435;-77
2022/12/21 00:31:29;;;;;;;3.80;1.10;;;14.60;74.40;;;;;;2440443;52;20997;-77
2022/12/21 00:33:55;;;;;;;2.92;1.02;;;14.60;74.50;;;;;;2559524;52;20926;-77
2022/12/21 00:36:23;;;;;;;2.25;1.10;;;14.60;74.50;;;;;;2409150;52;21399;-77
2022/12/21 00:38:49;;;;;;;2.95;1.20;;;14.60;74.50;;;;;;2369308;53;20974;-77
2022/12/21 00:41:20;;;;;;;3.03;1.00;;;14.60;74.60;;;;;;2486074;52;20958;-77
2022/12/21 00:43:46;;;;;;;2.45;1.25;;;14.60;74.50;;;;;;2369247;53;20974;-77
2022/12/21 00:46:24;;;;;;;3.28;1.23;;;14.60;74.60;;;;;;2537430;52;21868;-78
2022/12/21 00:48:50;;;;;;;4.47;1.00;;;14.60;74.40;;;;;;2369138;53;21411;-77
2022/12/21 00:51:19;;;;;;;3.45;1.40;;;14.60;74.60;;;;;;2478594;52;21779;-77
2022/12/21 00:53:45;;;;;;;2.10;1.00;;;14.60;74.60;;;;;;2420129;52;21206;-76
2022/12/21 00:56:12;;;;;;;4.12;1.40;;;14.60;74.60;;;;;;2369364;53;20951;-78
2022/12/21 00:58:39;;;;;;;3.30;1.48;;;14.60;74.70;;;;;;2369356;53;20954;-77
2022/12/21 01:01:22;;;;;;;3.40;1.45;;;14.60;74.70;;;;;;2384854;52;21041;-77
2022/12/21 01:03:49;;;;;;;2.95;1.17;;;14.60;74.70;;;;;;2350235;52;21019;-77
2022/12/21 01:06:20;;;;;;;2.87;1.10;;;14.60;74.70;;;;;;2341192;53;20925;-78
2022/12/21 01:08:47;;;;;;;3.10;1.27;;;14.60;74.60;;;;;;2396515;52;20978;-78
2022/12/21 01:11:15;;;;;;;2.90;1.27;;;14.60;74.80;;;;;;2370620;52;20911;-77
2022/12/21 01:13:42;;;;;;;2.35;1.05;;;14.50;74.70;;;;;;2537474;52;20923;-78
2022/12/21 01:16:12;;;;;;;3.30;1.10;;;14.50;74.70;;;;;;2433499;52;20974;-78
2022/12/21 01:18:38;;;;;;;4.47;1.60;;;14.50;74.50;;;;;;2369423;53;20978;-77
2022/12/21 01:21:05;;;;;;;3.08;1.25;;;14.60;74.80;;;;;;2369806;53;20984;-78
2022/12/21 01:23:31;;;;;;;3.33;1.20;;;14.50;74.70;;;;;;2439087;53;21018;-78
2022/12/21 01:25:59;;;;;;;3.03;1.20;;;14.50;74.70;;;;;;2389377;52;20994;-77
2022/12/21 01:28:25;;;;;;;2.62;0.90;;;14.50;74.70;;;;;;2502193;52;20929;-78
2022/12/21 01:30:52;;;;;;;2.87;1.10;;;14.50;74.80;;;;;;2621802;52;21680;-79
2022/12/21 01:33:18;;;;;;;3.58;1.20;;;14.50;74.80;;;;;;2530607;52;22154;-78
2022/12/21 01:35:45;;;;;;;2.30;0.88;;;14.50;74.90;;;;;;2369332;53;21201;-78
2022/12/21 01:38:11;;;;;;;2.78;1.00;;;14.50;75.00;;;;;;2369503;53;21317;-78
2022/12/21 01:40:38;;;;;;;3.20;1.20;;;14.50;75.00;;;;;;2369874;53;20910;-78
2022/12/21 01:45:07;;;;;;;2.67;1.08;;;14.50;75.00;;;;;;2369338;53;20926;-78
2022/12/21 01:47:42;;;;;;;2.65;0.90;;;14.60;74.30;;;;;;2369261;53;21005;-77
2022/12/21 01:50:44;;;;;;;2.97;0.93;;;14.60;74.90;;;;;;2358043;56;21058;-78
2022/12/21 01:53:34;;;;;;;3.20;1.00;;;14.60;74.70;;;;;;2361691;53;21235;-78
2022/12/21 01:56:01;;;;;;;2.80;0.98;;;14.60;74.70;;;;;;2550094;52;20938;-78
2022/12/21 01:58:28;;;;;;;3.33;0.98;;;14.60;75.20;;;;;;2407345;52;22194;-78
2022/12/21 02:00:55;;;;;;;4.87;1.20;;;14.60;75.20;;;;;;2366616;53;21296;-78
2022/12/21 02:03:22;;;;;;;3.70;1.12;;;14.50;75.20;;;;;;2369189;53;21044;-78
2022/12/21 02:06:01;;;;;;;2.45;1.00;;;14.50;75.20;;;;;;2369420;53;20970;-78
2022/12/21 02:08:27;;;;;;;2.62;1.00;;;14.60;75.20;;;;;;2369172;53;21387;-78
2022/12/21 02:10:53;;;;;;;2.33;1.02;;;14.60;75.40;;;;;;2368915;53;20962;-77
2022/12/21 02:13:20;;;;;;;2.00;0.93;;;14.50;75.30;;;;;;2369812;53;20942;-78
2022/12/21 02:16:21;;;;;;;1.83;0.90;;;14.50;75.30;;;;;;2369812;53;20975;-78
2022/12/21 02:20:51;;;;;;;3.15;1.02;;;14.60;75.20;;;;;;2365189;54;20926;-79
2022/12/21 02:23:54;;;;;;;2.45;1.00;;;14.60;74.50;;;;;;2369397;53;21049;-78
2022/12/21 02:26:52;;;;;;;3.17;0.98;;;14.60;74.90;;;;;;2514415;52;20965;-79
2022/12/21 02:31:15;;;;;;;3.20;1.25;;;14.60;75.10;;;;;;2423788;52;20986;-78
2022/12/21 02:34:01;;;;;;;2.75;0.88;;;14.60;74.50;;;;;;2369705;53;20934;-79
2022/12/21 02:37:29;;;;;;;2.72;1.00;;;14.60;75.10;;;;;;2369683;53;21351;-78
2022/12/21 02:40:03;;;;;;;3.50;1.12;;;14.60;75.10;;;;;;2369261;53;20916;-78
2022/12/21 02:44:14;;;;;;;2.92;1.10;;;14.60;75.30;;;;;;2552217;52;20985;-78
2022/12/21 02:46:55;;;;;;;2.30;0.80;;;14.60;74.80;;;;;;2428823;52;20906;-78
2022/12/21 02:50:07;;;;;;;2.22;1.00;;;14.60;75.30;;;;;;2369355;53;20993;-78
2022/12/21 02:52:49;;;;;;;2.30;1.00;;;14.60;75.50;;;;;;2396973;52;21041;-78
2022/12/21 02:55:15;;;;;;;3.03;1.10;;;14.60;75.30;;;;;;2369326;53;21419;-78
2022/12/21 02:57:43;;;;;;;4.00;1.20;;;14.60;75.60;;;;;;2373231;52;21533;-78
2022/12/21 03:00:11;;;;;;;3.30;1.15;;;14.60;75.60;;;;;;2368603;53;21450;-79
2022/12/21 03:12:46;;;;;;;3.08;0.90;;;14.60;75.30;;;;;;2369656;53;21463;-79
2022/12/21 03:15:32;;;;;;;3.08;0.82;;;14.60;75.40;;;;;;2369423;53;21376;-78
2022/12/21 03:24:08;;;;;;;2.03;0.90;;;14.70;75.40;;;;;;2369292;53;21316;-79
2022/12/21 03:26:41;;;;;;;2.10;0.80;;;14.70;74.90;;;;;;2369533;53;20962;-78
2022/12/21 03:29:08;;;;;;;2.87;0.80;;;14.70;75.50;;;;;;2621546;52;21403;-79
2022/12/21 03:31:41;;;;;;;2.50;1.20;;;14.70;75.70;;;;;;2585260;52;20941;-79
2022/12/21 03:34:08;;;;;;;;;;;14.70;75.70;;;;;;2385354;53;20950;-79
2022/12/21 03:36:47;;;;;;;1.40;0.70;;;14.70;75.60;;;;;;2369725;53;20060;-79
2022/12/21 03:39:14;;;;;;;2.67;1.00;;;14.70;75.70;;;;;;2621543;52;21795;-78
2022/12/21 03:41:53;;;;;;;2.65;1.02;;;14.70;75.70;;;;;;2369598;53;20997;-79
2022/12/21 03:44:23;;;;;;;2.55;0.98;;;14.70;75.70;;;;;;2413935;52;20985;-78
2022/12/21 03:46:57;;;;;;;2.72;1.10;;;14.70;75.80;;;;;;2503922;52;20918;-79
2022/12/21 03:49:30;;;;;;;2.42;1.00;;;14.70;75.60;;;;;;2453364;52;21311;-79
2022/12/21 03:52:02;;;;;;;2.45;1.00;;;14.70;75.70;;;;;;2369010;53;21205;-79
2022/12/21 03:56:00;;;;;;;3.28;1.30;;;14.70;75.70;;;;;;2622336;52;20923;-79
2022/12/21 03:58:26;;;;;;;4.03;1.25;;;14.70;74.80;;;;;;2621889;52;21269;-79
2022/12/21 04:03:31;;;;;;;2.05;1.05;;;14.70;75.60;;;;;;2368766;53;20922;-79
2022/12/21 04:06:01;;;;;;;1.92;0.80;;;14.70;74.80;;;;;;2393796;52;20894;-80
2022/12/21 04:08:28;;;;;;;2.60;0.90;;;14.70;75.40;;;;;;2402967;52;20894;-79
2022/12/21 04:10:54;;;;;;;3.12;1.00;;;14.70;75.50;;;;;;2368687;53;21605;-79
2022/12/21 04:13:21;;;;;;;4.75;1.15;;;14.70;75.60;;;;;;2622175;52;20894;-78
2022/12/21 04:16:05;;;;;;;2.30;0.95;;;14.70;75.60;;;;;;2369774;53;21050;-79
2022/12/21 04:21:17;;;;;;;4.10;1.20;;;14.70;75.70;;;;;;2369574;53;21550;-79
2022/12/21 04:29:16;;;;;;;3.45;1.08;;;14.70;75.70;;;;;;2369207;53;20925;-79
2022/12/21 04:31:42;;;;;;;3.95;1.10;;;14.70;75.70;;;;;;2516789;52;22952;-79
2022/12/21 04:34:09;;;;;;;2.70;0.93;;;14.70;75.70;;;;;;2368978;53;20907;-78
2022/12/21 04:39:20;;;;;;;3.35;0.80;;;14.70;75.70;;;;;;2342036;53;21350;-78
2022/12/21 04:41:46;;;;;;;2.95;0.98;;;14.70;75.70;;;;;;2386110;52;20988;-79
2022/12/21 04:44:12;;;;;;;2.12;0.90;;;14.70;76.40;;;;;;2352032;52;21258;-79
2022/12/21 04:46:39;;;;;;;4.20;1.23;;;14.70;75.70;;;;;;2407747;52;20980;-79
2022/12/21 04:49:06;;;;;;;2.47;0.90;;;14.70;75.70;;;;;;2362615;53;20996;-79
2022/12/21 04:51:32;;;;;;;2.90;1.02;;;14.70;75.70;;;;;;2369886;53;20993;-78
2022/12/21 04:54:01;;;;;;;2.83;0.80;;;14.70;75.80;;;;;;2379712;53;21275;-79
2022/12/21 04:56:28;;;;;;;2.33;1.00;;;14.70;75.70;;;;;;2344487;53;21410;-79
2022/12/21 04:58:54;;;;;;;3.50;0.80;;;14.70;75.80;;;;;;2344438;53;20920;-79
2022/12/21 05:01:21;;;;;;;3.45;0.90;;;14.70;75.70;;;;;;2341435;53;21449;-79
2022/12/21 05:03:48;;;;;;;4.07;0.98;;;14.80;75.80;;;;;;2343911;53;21422;-79
2022/12/21 05:06:17;;;;;;;2.10;1.00;;;14.80;75.80;;;;;;2341796;53;21611;-79
2022/12/21 05:08:43;;;;;;;2.62;0.80;;;14.80;75.70;;;;;;2371791;52;20933;-79
2022/12/21 05:11:15;;;;;;;4.37;1.08;;;14.80;75.80;;;;;;2346513;53;21445;-78
2022/12/21 05:13:41;;;;;;;2.62;0.88;;;14.80;75.70;;;;;;2342247;53;21516;-79
2022/12/21 05:16:09;;;;;;;3.17;0.90;;;14.80;75.70;;;;;;2341821;53;20940;-79
2022/12/21 05:18:36;;;;;;;2.22;1.00;;;14.80;75.70;;;;;;2341927;53;21012;-79
2022/12/21 05:21:02;;;;;;;4.47;1.23;;;14.80;75.70;;;;;;2341195;53;21517;-79
2022/12/21 05:23:28;;;;;;;2.87;0.80;;;14.80;75.70;;;;;;2376203;53;21028;-79
2022/12/21 05:25:55;;;;;;;1.70;0.80;;;14.80;75.70;;;;;;2340061;53;20937;-79
2022/12/21 05:28:22;;;;;;;4.03;0.88;;;14.80;75.70;;;;;;2400582;52;21414;-78
2022/12/21 05:30:49;;;;;;;4.62;0.90;;;14.80;75.70;;;;;;2416584;52;21249;-78
2022/12/21 05:33:15;;;;;;;2.60;1.10;;;14.80;75.70;;;;;;2449215;52;21229;-79
2022/12/21 05:35:42;;;;;;;3.80;1.12;;;14.80;75.70;;;;;;2414695;52;21412;-79
2022/12/21 05:38:08;;;;;;;2.35;0.90;;;14.80;75.70;;;;;;2368503;53;20997;-79
2022/12/21 05:40:35;;;;;;;4.00;1.27;;;14.80;75.70;;;;;;2440009;52;21344;-79
2022/12/21 05:43:02;;;;;;;2.62;1.00;;;14.80;75.70;;;;;;2484529;52;20922;-79
2022/12/21 05:45:28;;;;;;;2.72;1.15;;;14.80;75.70;;;;;;2425809;52;20978;-78
2022/12/21 05:47:55;;;;;;;1.80;0.80;;;14.80;75.70;;;;;;2368768;53;20970;-79
2022/12/21 05:50:21;;;;;;;1.92;0.95;;;14.80;75.70;;;;;;2369329;53;20946;-78
2022/12/21 05:52:48;;;;;;;2.25;0.85;;;14.80;75.70;;;;;;2413019;52;20894;-78
2022/12/21 05:55:15;;;;;;;3.70;1.02;;;14.80;75.70;;;;;;2377383;52;21464;-78
2022/12/21 05:57:41;;;;;;;3.95;0.93;;;14.80;75.70;;;;;;2444269;52;20942;-78
2022/12/21 06:00:08;;;;;;;3.70;1.05;;;14.80;75.60;;;;;;2370537;52;20906;-78
2022/12/21 06:02:40;;;;;;;4.40;0.98;;;14.80;75.60;;;;;;2369532;53;20906;-78
2022/12/21 06:05:27;;;;;;;3.55;1.00;;;14.80;75.60;;;;;;2442384;52;21005;-78
2022/12/21 06:07:54;;;;;;;2.30;0.80;;;14.80;75.20;;;;;;2418004;52;21549;-78
2022/12/21 06:10:23;;;;;;;2.08;0.90;;;14.80;75.60;;;;;;2415506;52;20945;-78
2022/12/21 06:12:49;;;;;;;3.03;0.95;;;14.80;75.60;;;;;;2368019;53;21005;-79
2022/12/21 06:15:16;;;;;;;3.40;1.20;;;14.80;75.70;;;;;;2369263;53;20878;-78
2022/12/21 06:17:43;;;;;;;2.85;1.12;;;14.80;75.70;;;;;;2367481;53;21991;-79
2022/12/21 06:20:09;;;;;;;3.62;1.08;;;14.80;75.70;;;;;;2371433;53;21014;-78
2022/12/21 06:22:51;;;;;;;3.28;1.00;;;14.80;75.70;;;;;;2369956;53;21364;-79
2022/12/21 06:25:17;;;;;;;2.03;0.80;;;14.80;75.30;;;;;;2369122;53;20934;-78
2022/12/21 06:27:44;;;;;;;3.12;0.80;;;14.80;75.70;;;;;;2376585;52;21510;-79
2022/12/21 06:30:10;;;;;;;1.98;0.90;;;14.80;75.70;;;;;;2490523;52;21455;-78
2022/12/21 06:32:36;;;;;;;2.78;0.90;;;14.70;75.60;;;;;;2369560;53;21478;-79
2022/12/21 06:35:05;;;;;;;2.22;0.70;;;14.70;75.70;;;;;;2368952;53;20930;-79
2022/12/21 06:37:31;;;;;;;2.60;1.05;;;14.80;75.70;;;;;;2621904;52;21493;-78
2022/12/21 06:39:57;;;;;;;3.72;0.90;;;14.80;75.70;;;;;;2368511;53;21379;-79
2022/12/21 06:42:24;;;;;;;2.37;0.90;;;14.80;75.70;;;;;;2368273;53;21014;-79
2022/12/21 06:44:50;;;;;;;3.03;0.98;;;14.80;75.70;;;;;;2369470;53;20883;-79
2022/12/21 06:47:41;;;;;;;2.75;0.98;;;14.80;75.70;;;;;;2477969;52;20926;-79
2022/12/21 06:50:08;;;;;;;1.95;0.90;;;14.80;75.30;;;;;;2368688;53;20937;-79
2022/12/21 06:52:59;;;;;;;2.87;0.80;;;14.80;75.70;;;;;;2450014;52;20875;-79
2022/12/21 06:55:25;;;;;;;2.47;0.85;;;14.80;75.30;;;;;;2369345;53;20955;-79
2022/12/21 06:57:51;;;;;;;1.95;0.80;;;14.80;75.70;;;;;;2369310;53;20902;-79
2022/12/21 07:00:18;;;;;;;3.40;1.10;;;14.80;75.70;;;;;;2529917;52;21309;-79
2022/12/21 07:02:44;;;;;;;2.67;0.75;;;14.80;75.70;;;;;;2416660;52;20970;-78
2022/12/21 07:05:11;;;;;;;2.97;1.00;;;14.80;75.70;;;;;;2368937;53;20922;-80
2022/12/21 07:07:37;;;;;;;3.42;1.05;;;14.80;75.70;;;;;;2444745;52;21272;-79
2022/12/21 07:10:04;;;;;;;2.33;1.10;;;14.80;75.70;;;;;;2365631;53;21441;-79
2022/12/21 07:12:30;;;;;;;2.05;0.90;;;14.80;75.70;;;;;;2368696;53;20990;-79
2022/12/21 07:14:59;;;;;;;3.28;1.00;;;14.80;75.70;;;;;;2410959;52;21038;-79
2022/12/21 07:17:27;;;;;;;2.08;0.85;;;14.80;75.70;;;;;;2369255;53;20894;-79
2022/12/21 07:19:53;;;;;;;4.07;1.00;;;14.70;75.50;;;;;;2373703;52;21463;-78
2022/12/21 07:22:19;;;;;;;3.55;0.90;;;14.80;75.60;;;;;;2421552;52;20959;-79
2022/12/21 07:25:01;;;;;;;2.47;1.00;;;14.80;75.60;;;;;;2367511;53;21451;-79
2022/12/21 07:27:28;;;;;;;2.78;0.85;;;14.80;75.20;;;;;;2521984;52;22218;-79
2022/12/21 07:29:54;;;;;;;1.83;0.90;;;14.80;75.60;;;;;;2381058;52;21380;-79
2022/12/21 07:32:35;;;;;;;3.03;1.00;;;14.70;75.50;;;;;;2392971;52;20972;-79
2022/12/21 07:35:02;;;;;;;2.47;1.00;;;14.80;75.30;;;;;;2410061;52;20990;-79
2022/12/21 07:37:28;;;;;;;3.58;0.82;;;14.70;75.60;;;;;;2407240;52;20966;-79
2022/12/21 07:39:54;;;;;;;1.65;0.70;;;14.80;75.70;;;;;;2559410;52;21431;-79
2022/12/21 07:42:21;;;;;;;2.53;0.80;;;14.70;75.60;;;;;;2368580;53;20962;-79
2022/12/21 07:44:47;;;;;;;3.33;0.80;;;14.70;75.60;;;;;;2505096;52;21291;-79
2022/12/21 07:47:14;;;;;;;2.70;0.90;;;14.70;75.60;;;;;;2368482;53;20962;-79
2022/12/21 07:49:50;;;;;;;1.87;0.65;;;14.70;75.60;;;;;;2438774;52;20934;-80
2022/12/21 07:52:16;;;;;;;1.83;0.77;;;14.70;75.40;;;;;;2403326;52;21307;-80
2022/12/21 07:54:42;;;;;;;2.62;1.00;;;14.70;75.60;;;;;;2368876;53;20930;-79
2022/12/21 07:57:13;;;;;;;2.15;0.90;;;14.70;75.60;;;;;;2369231;53;20914;-79
2022/12/21 07:59:39;;;;;;;3.15;1.00;;;14.70;75.60;;;;;;2393251;52;20997;-79
2022/12/21 08:02:08;;;;;;;2.35;0.98;;;14.70;75.60;;;;;;2463624;52;21304;-79
2022/12/21 08:04:34;;;;;;;3.87;1.12;;;14.70;75.50;;;;;;2369059;53;20938;-79
2022/12/21 08:07:28;;;;;;;4.43;1.20;;;14.70;75.50;;;;;;2402098;52;20998;-79
2022/12/21 08:09:57;;;;;;;2.25;1.10;;;14.70;75.00;;;;;;2368851;53;20911;-79
2022/12/21 08:12:23;;;;;;;3.53;1.15;;;14.70;75.50;;;;;;2417759;52;20974;-79
2022/12/21 08:14:50;;;;;;;2.50;1.15;;;14.70;75.50;;;;;;2369135;53;20894;-79
2022/12/21 08:17:17;;;;;;;2.65;1.02;;;14.70;75.40;;;;;;2367535;53;21030;-79
2022/12/21 08:19:46;;;;;;;2.45;1.00;;;14.70;75.40;;;;;;2369318;53;21411;-79
2022/12/21 08:22:12;;;;;;;2.35;0.75;;;14.70;75.40;;;;;;2367840;53;21379;-79
2022/12/21 08:24:39;;;;;;;4.00;0.88;;;14.70;75.50;;;;;;2376489;52;20958;-79
2022/12/21 08:27:05;;;;;;;2.35;0.80;;;14.70;75.50;;;;;;2368921;53;20938;-79
2022/12/21 08:29:32;;;;;;;2.03;0.85;;;14.70;75.50;;;;;;2366764;53;20919;-79
2022/12/21 08:31:58;;;;;;;2.42;0.73;;;14.70;75.50;;;;;;2368078;53;20986;-78
2022/12/21 08:34:24;;;;;;;2.03;0.93;;;14.60;75.50;;;;;;2369506;53;20962;-79
2022/12/21 08:36:52;;;;;;;2.60;0.90;;;14.60;75.50;;;;;;2368831;53;21018;-79
2022/12/21 08:39:18;;;;;;;2.42;0.90;;;14.60;75.50;;;;;;2369091;53;20942;-79
2022/12/21 08:41:44;;;;;;;4.30;1.02;;;14.60;75.50;;;;;;2381903;52;20930;-79
2022/12/21 08:44:10;;;;;;;1.87;0.70;;;14.60;75.50;;;;;;2369100;53;21287;-78
2022/12/21 08:46:37;;;;;;;2.95;1.15;;;14.60;75.50;;;;;;2368869;53;20990;-79
2022/12/21 08:49:03;;;;;;;2.47;0.90;;;14.60;75.50;;;;;;2368472;53;21103;-79
2022/12/21 08:51:29;;;;;;;3.37;1.33;;;14.60;75.60;;;;;;2510230;52;20965;-78
2022/12/21 08:53:56;;;;;;;1.75;0.73;;;14.60;75.60;;;;;;2369129;53;21379;-79
2022/12/21 08:56:22;;;;;;;2.00;0.90;;;14.60;75.60;;;;;;2368506;53;20930;-79
2022/12/21 08:58:48;;;;;;;2.58;0.95;;;14.60;75.70;;;;;;2369374;53;21198;-78
2022/12/21 09:01:21;;;;;;;2.10;0.80;;;14.60;75.80;;;;;;2368492;53;20927;-78
2022/12/21 09:03:48;;;;;;;2.00;0.73;;;14.60;75.70;;;;;;2367657;53;20938;-78
2022/12/21 09:06:14;;;;;;;3.20;0.90;;;14.60;75.90;;;;;;2369062;53;20906;-78
2022/12/21 09:08:40;;;;;;;2.47;0.95;;;14.60;76.00;;;;;;2369484;53;20910;-78
2022/12/21 09:11:08;;;;;;;2.10;0.70;;;14.60;76.00;;;;;;2368578;53;21984;-78
2022/12/21 09:13:36;;;;;;;2.20;0.90;;;14.60;75.90;;;;;;2501822;52;20949;-78
2022/12/21 09:16:02;;;;;;;4.57;1.20;;;14.60;76.00;;;;;;2452165;52;20919;-78
2022/12/21 09:18:28;;;;;;;3.40;1.40;;;14.60;75.90;;;;;;2415913;52;21431;-78
2022/12/21 09:21:01;;;;;;;3.10;1.10;;;14.60;75.90;;;;;;2621593;52;20942;-78
2022/12/21 09:23:28;;;;;;;2.58;1.00;;;14.60;75.80;;;;;;2378126;52;21301;-78
2022/12/21 09:25:55;;;;;;;3.78;0.90;;;14.60;75.90;;;;;;2367415;53;20925;-78
2022/12/21 09:28:22;;;;;;;3.12;0.90;;;14.70;76.10;;;;;;2389676;52;20910;-78
2022/12/21 09:31:15;;;;;;;2.95;0.90;;;14.70;76.10;;;;;;2369118;53;20932;-78
2022/12/21 09:33:44;;;;;;;1.73;0.68;;;14.60;75.60;;;;;;2434869;52;20914;-78
2022/12/21 09:36:11;;;;;;;2.28;1.00;;;14.70;76.10;;;;;;2438973;52;21332;-78
2022/12/21 09:38:38;;;;;;;2.62;1.02;;;14.60;76.10;;;;;;2393326;52;21378;-78
2022/12/21 09:44:55;;;;;;;2.65;1.00;;;14.60;76.20;;;;;;2446649;52;21331;-78
2022/12/21 09:47:32;;;;;;;2.72;1.05;;;14.70;75.90;;;;;;2369102;53;20942;-78
2022/12/21 09:50:04;;;;;;;3.60;1.00;;;14.70;76.10;;;;;;2367062;53;21469;-78
2022/12/21 09:52:40;;;;;;;2.87;0.88;;;14.70;76.10;;;;;;2368985;53;20931;-79
2022/12/21 09:55:15;;;;;;;2.80;0.80;;;14.70;76.10;;;;;;2368737;53;20923;-78
2022/12/21 09:57:44;;;;;;;2.40;0.85;;;14.70;76.20;;;;;;2383447;52;20973;-78
2022/12/21 10:00:17;;;;;;;2.25;0.85;;;14.70;76.40;;;;;;2367617;53;21406;-78
2022/12/21 10:08:27;;;;;;;2.67;0.80;;;14.70;76.40;;;;;;2369464;53;21018;-78
2022/12/21 10:11:01;;;;;;;2.10;0.80;;;14.80;75.70;;;;;;2369092;53;20939;-78
2022/12/21 10:14:22;;;;;;;2.05;0.90;;;14.80;76.30;;;;;;2369546;53;20930;-78
2022/12/21 10:19:50;;;;;;;3.10;0.90;;;14.80;76.10;;;;;;2369645;53;20934;-78
2022/12/21 10:22:29;;;;;;;2.33;0.98;;;14.80;76.00;;;;;;2368609;53;21957;-79
2022/12/21 10:24:59;;;;;;;1.58;0.80;;;14.90;76.40;;;;;;2437214;52;20954;-79
2022/12/21 10:30:37;;;;;;;2.60;0.90;;;14.90;76.50;;;;;;2369935;53;20986;-78
2022/12/21 10:33:03;;;;;;;1.77;0.80;;;14.90;75.60;;;;;;2368796;53;20914;-80
2022/12/21 10:35:36;;;;;;;2.70;1.00;;;14.90;76.30;;;;;;2405170;52;20985;-81
2022/12/21 10:38:03;;;;;;;2.50;0.95;;;14.90;76.30;;;;;;2452318;52;20959;-78
2022/12/21 10:40:31;;;;;;;1.85;0.70;;;14.90;76.30;;;;;;2433340;52;21006;-80
2022/12/21 10:42:58;;;;;;;1.45;0.73;;;14.90;76.40;;;;;;2365224;53;21418;-78
2022/12/21 10:45:24;;;;;;;1.90;0.80;;;14.90;76.60;;;;;;2367064;53;21177;-78
2022/12/21 10:47:52;;;;;;;3.53;0.88;;;14.90;76.70;;;;;;2446756;52;21034;-77
2022/12/21 10:50:55;;;;;;;2.47;0.98;;;15.00;77.00;;;;;;2376802;52;20989;-78
2022/12/21 10:53:27;;;;;;;;;;;15.00;76.90;;;;;;2480079;52;20942;-78
2022/12/21 10:56:02;;;;;;;1.60;0.70;;;15.00;76.50;;;;;;2343229;53;20564;-78
2022/12/21 10:58:30;;;;;;;1.95;0.82;;;15.10;78.00;;;;;;2383070;53;21174;-78
2022/12/21 11:01:04;;;;;;;3.62;1.00;;;15.10;78.60;;;;;;2347261;53;21270;-80
2022/12/21 11:03:36;;;;;;;2.50;1.02;;;15.20;79.10;;;;;;2354002;53;21524;-78
2022/12/21 11:06:21;;;;;;;3.12;1.10;;;15.30;79.60;;;;;;2347713;53;20952;-78
2022/12/21 11:08:51;;;;;;;2.67;0.85;;;15.40;79.80;;;;;;2477594;52;21564;-81
2022/12/21 11:11:34;;;;;;;2.35;0.88;;;15.40;80.30;;;;;;2464833;53;20967;-79
2022/12/21 11:14:12;;;;;;;2.65;1.02;;;15.60;80.30;;;;;;2341679;53;21754;-79
2022/12/21 11:16:40;;;;;;;1.83;0.80;;;15.70;80.60;;;;;;2343542;53;20976;-79
2022/12/21 11:19:10;;;;;;;2.78;1.05;;;15.80;80.70;;;;;;2370263;53;20948;-79
2022/12/21 11:21:55;;;;;;;3.15;1.30;;;15.90;80.70;;;;;;2421304;52;21503;-79
2022/12/21 11:24:40;;;;;;;5.12;1.40;;;15.90;80.80;;;;;;2343746;53;21386;-79
2022/12/21 11:27:29;;;;;;;4.70;1.85;;;16.00;80.00;;;;;;2352262;53;21099;-79
2022/12/21 11:29:59;;;;;;;4.65;1.80;;;16.20;79.80;;;;;;2341788;53;21388;-77
2022/12/21 11:32:26;;;;;;;3.22;1.52;;;16.20;80.10;;;;;;2386139;53;21419;-80
2022/12/21 11:35:24;;;;;;;4.93;2.10;;;16.30;79.90;;;;;;2341511;53;21011;-81
2022/12/21 11:37:54;;;;;;;4.68;2.08;;;16.30;79.10;;;;;;2338685;53;20954;-80
2022/12/21 11:40:25;;;;;;;4.43;2.10;;;16.40;79.30;;;;;;2393221;52;21002;-78
2022/12/21 11:43:15;;;;;;;3.87;1.90;;;16.40;79.20;;;;;;2395434;52;20918;-81
2022/12/21 11:49:21;;;;;;;5.10;2.30;;;16.50;78.20;;;;;;2276823;52;6900001;-79
2022/12/21 11:54:36;;;;;;;2.85;1.30;;;16.60;78.30;;;;;;2443156;52;21431;-79
2022/12/21 11:57:12;;;;;;;5.20;1.90;;;16.60;76.60;;;;;;2371358;53;20986;-78
2022/12/21 12:00:24;;;;;;;4.60;1.90;;;16.60;77.10;;;;;;2338808;53;20994;-78
2022/12/21 12:04:21;;;;;;;3.05;1.30;;;16.60;76.20;;;;;;2342781;53;20970;-79
2022/12/21 12:09:52;;;;;;;3.75;1.30;;;16.60;76.20;;;;;;2342418;53;20969;-78
2022/12/21 12:12:26;;;;;;;1.77;0.90;;;16.60;76.80;;;;;;2334296;53;21174;-78
2022/12/21 12:17:56;;;;;;;3.90;1.08;;;16.60;76.70;;;;;;2342326;53;20944;-79
2022/12/21 12:23:51;;;;;;;3.22;1.10;;;16.60;75.70;;;;;;2397896;52;21505;-79
2022/12/21 12:30:18;;;;;;;1.73;0.70;;;16.60;76.20;;;;;;2608822;52;20930;-78
2022/12/21 12:36:28;;;;;;;3.40;0.70;;;16.60;75.40;;;;;;2341785;53;20992;-80
2022/12/21 12:42:00;;;;;;;2.20;0.68;;;16.60;75.50;;;;;;2512224;53;21493;-79
2022/12/21 12:44:49;;;;;;;2.30;0.60;;;16.50;76.10;;;;;;2342383;53;20969;-78
2022/12/21 12:48:46;;;;;;;2.03;0.70;;;16.50;76.10;;;;;;2341438;53;21332;-79
2022/12/21 12:52:21;;;;;;;1.58;0.70;;;16.50;76.20;;;;;;2401733;52;20946;-80
2022/12/21 12:55:25;;;;;;;2.45;0.80;;;16.50;76.30;;;;;;2369954;53;20923;-81
2022/12/21 12:58:20;;;;;;;1.02;0.55;;;16.50;75.90;;;;;;2369764;53;20962;-77
2022/12/21 13:01:02;;;;;;;1.87;0.80;;;16.50;76.10;;;;;;2394322;52;21546;-78
2022/12/21 13:08:50;;;;;;;1.87;0.77;;;16.50;76.20;;;;;;2369783;53;20934;-78
2022/12/21 13:11:34;;;;;;;1.83;0.60;;;16.50;75.40;;;;;;2598040;52;21026;-79
2022/12/21 13:14:14;;;;;;;3.70;0.90;;;16.50;75.90;;;;;;2389947;52;21432;-80
2022/12/21 13:17:41;;;;;;;2.42;1.15;;;16.50;75.90;;;;;;2446689;52;20961;-80
2022/12/21 13:20:09;;;;;;;1.17;0.60;;;16.40;75.50;;;;;;2532155;52;20914;-78
2022/12/21 13:22:36;;;;;;;1.52;0.80;;;16.40;76.10;;;;;;2598817;52;21026;-78
2022/12/21 13:25:14;;;;;;;2.70;0.82;;;16.40;76.10;;;;;;2368175;53;21014;-80
2022/12/21 13:27:44;;;;;;;1.77;0.70;;;16.40;75.70;;;;;;2384433;52;20998;-78
2022/12/21 13:30:17;;;;;;;1.87;0.82;;;16.40;76.10;;;;;;2397918;52;20979;-82
2022/12/21 13:32:46;;;;;;;2.37;1.00;;;16.40;76.00;;;;;;2385955;52;20957;-79
2022/12/21 13:35:28;;;;;;;3.25;0.80;;;16.40;76.10;;;;;;2389102;52;20950;-80
2022/12/21 13:38:01;;;;;;;2.15;0.98;;;16.40;75.90;;;;;;2370084;53;21489;-79
2022/12/21 13:40:38;;;;;;;2.75;1.00;;;16.40;76.10;;;;;;2416997;52;21487;-77
2022/12/21 13:43:21;;;;;;;5.53;3.00;;;16.40;75.90;;;;;;2369620;53;20977;-81
2022/12/21 13:46:05;;;;;;;5.95;2.83;;;16.40;75.90;;;;;;2370184;53;20914;-79
2022/12/21 13:48:40;;;;;;;5.03;2.45;;;16.30;75.90;;;;;;2370318;53;21472;-79
2022/12/21 13:51:32;;;;;;;5.25;2.03;;;16.30;76.60;;;;;;2408744;52;21022;-78
2022/12/21 13:54:25;;;;;;;3.33;1.50;;;16.30;75.70;;;;;;2349148;53;21541;-82
2022/12/21 14:00:25;;;;;;;2.37;1.00;;;16.30;75.80;;;;;;2348150;52;21758;-80
2022/12/21 14:07:53;;;;;;;1.80;0.75;;;16.40;75.70;;;;;;2342274;53;20909;-80
2022/12/21 14:10:31;;;;;;;1.70;0.70;;;16.40;75.40;;;;;;2343468;53;21003;-78
2022/12/21 14:13:33;;;;;;;1.85;0.80;;;16.40;76.10;;;;;;2346135;53;20940;-80
2022/12/21 14:16:12;;;;;;;1.80;0.70;;;16.40;75.70;;;;;;2434272;52;20969;-77
2022/12/21 14:18:39;;;;;;;2.72;0.93;;;16.40;76.20;;;;;;2341195;54;21315;-82
2022/12/21 14:21:36;;;;;;;2.15;1.00;;;16.30;76.10;;;;;;2338055;54;21523;-77
2022/12/21 14:24:04;;;;;;;3.58;1.15;;;16.30;75.20;;;;;;2339818;53;21032;-78
2022/12/21 14:26:41;;;;;;;2.95;1.20;;;16.30;75.80;;;;;;2341495;53;21032;-79
2022/12/21 14:29:49;;;;;;;2.92;1.05;;;16.30;75.60;;;;;;2432008;52;20981;-79
2022/12/21 14:32:17;;;;;;;3.33;1.25;;;16.30;74.70;;;;;;2341553;53;20965;-78
2022/12/21 14:34:52;;;;;;;3.03;1.10;;;16.30;75.80;;;;;;2358256;53;21469;-78
2022/12/21 14:37:25;;;;;;;3.08;1.20;;;16.30;75.60;;;;;;2385987;52;20954;-77
2022/12/21 14:40:28;;;;;;;2.78;1.30;;;16.20;75.30;;;;;;2363450;53;20942;-78
2022/12/21 14:42:55;;;;;;;4.53;1.83;;;16.20;75.10;;;;;;2362976;53;20955;-78
2022/12/21 14:46:26;;;;;;;6.53;2.83;;;16.20;75.70;;;;;;2381647;52;21436;-81
2022/12/21 14:49:07;;;;;;;4.57;2.10;;;16.20;75.50;;;;;;2395209;52;21639;-81
2022/12/21 14:51:52;;;;;;;15.90;8.07;;;16.20;75.10;;;;;;2417897;52;21960;-79
2022/12/21 14:54:54;;;;;;;9.23;4.95;;;16.20;75.00;;;;;;2604930;52;20910;-79